Crater Lake Natl Park, Oregon
Current Conditions -  °F | °C
As of 3:53 PM on Saturday 20 Dec 2014 (Local Time) from KMFR Reporting Station
Light Rain Light Rain  
Wind Chill: 46°   Ceiling: 4800
Heat Index: 48°   Visibility: 9mi
Dew Point: 47°   Wind: 5mph
Humidity: 96%   Direction: 360°N
Pressure: 29.94"   Gusts: NA
Location:  42.82°N, 122.13°W
Report Text: KMFR 202353Z 36004KT 9SM -RA BKN048 BKN055 OVC070 09/08 A2994 RMK AO2 SLP142 P0001 60012 T00890083 10089 20072 53002
Loading
Personal Weather Stations






























Interactive Weather Map New forecast layout! Learn more

10-Day Weather Forecast

Advertisements
Track Severe Weather on mobile